createdAt,value
2023-05-05T00:01:14.851Z,16.75
2023-05-05T00:04:17.778Z,16.90
2023-05-05T00:07:19.555Z,17.01
2023-05-05T00:10:21.681Z,17.23
2023-05-05T00:13:23.941Z,17.12
2023-05-05T00:16:25.757Z,16.93
2023-05-05T00:19:27.468Z,16.63
2023-05-05T00:22:29.204Z,16.39
2023-05-05T00:25:30.913Z,16.39
2023-05-05T00:28:32.672Z,16.71
2023-05-05T00:31:34.565Z,16.95
2023-05-05T00:34:36.276Z,16.94
2023-05-05T00:37:37.903Z,16.76
2023-05-05T00:40:39.642Z,16.51
2023-05-05T00:43:41.209Z,16.71
2023-05-05T00:46:43.577Z,16.62
2023-05-05T00:49:46.277Z,16.40
2023-05-05T00:52:48.672Z,16.54
2023-05-05T00:55:51.206Z,16.69
2023-05-05T00:58:53.131Z,16.79
2023-05-05T01:01:54.862Z,16.51
2023-05-05T01:04:56.600Z,16.26
2023-05-05T01:08:33.829Z,16.12
2023-05-05T01:12:00.905Z,16.15
2023-05-05T01:15:05.548Z,16.11
2023-05-05T01:18:35.318Z,16.00
2023-05-05T01:22:07.169Z,15.96
2023-05-05T01:25:12.202Z,15.97
2023-05-05T01:28:45.472Z,15.86
2023-05-05T01:31:55.071Z,16.12
2023-05-05T01:34:56.916Z,16.27
2023-05-05T01:38:25.444Z,16.02
2023-05-05T01:41:32.046Z,16.29
2023-05-05T01:44:37.038Z,16.01
2023-05-05T01:47:40.582Z,16.00
2023-05-05T01:50:43.856Z,16.37
2023-05-05T01:53:47.347Z,16.37
2023-05-05T01:56:49.785Z,16.35
2023-05-05T01:59:53.496Z,16.37
2023-05-05T02:02:59.912Z,16.62
2023-05-05T02:06:03.500Z,16.27
2023-05-05T02:09:06.713Z,16.00
2023-05-05T02:12:09.736Z,15.89
2023-05-05T02:15:13.013Z,15.81
2023-05-05T02:18:14.909Z,16.13
2023-05-05T02:21:18.178Z,16.19
2023-05-05T02:24:19.905Z,16.23
2023-05-05T02:27:24.337Z,16.13
2023-05-05T02:30:30.137Z,16.23
2023-05-05T02:33:34.872Z,16.13
2023-05-05T02:36:41.482Z,16.28
2023-05-05T02:39:51.652Z,16.49
2023-05-05T02:42:57.312Z,16.58
2023-05-05T02:46:03.709Z,16.61
2023-05-05T02:49:07.372Z,16.65
2023-05-05T02:52:09.816Z,16.47
2023-05-05T02:55:14.042Z,16.57
2023-05-05T02:58:49.235Z,16.56
2023-05-05T03:01:51.575Z,16.62
2023-05-05T03:05:04.209Z,16.54
2023-05-05T03:08:18.340Z,16.34
2023-05-05T03:11:29.075Z,16.11
2023-05-05T03:14:36.498Z,16.07
2023-05-05T03:17:40.469Z,16.03
2023-05-05T03:20:43.594Z,16.12
2023-05-05T03:23:47.389Z,16.16
2023-05-05T03:26:54.489Z,16.05
2023-05-05T03:29:59.783Z,16.03
2023-05-05T03:33:01.935Z,16.07
2023-05-05T03:36:04.013Z,15.99
2023-05-05T03:39:06.097Z,15.99
2023-05-05T03:42:09.055Z,15.83
2023-05-05T03:45:11.352Z,15.82
2023-05-05T03:48:14.402Z,16.08
2023-05-05T03:51:17.507Z,16.23
2023-05-05T03:54:19.215Z,16.03
2023-05-05T03:57:21.063Z,15.99
2023-05-05T04:00:22.771Z,15.98
2023-05-05T04:03:24.658Z,16.04
2023-05-05T04:06:26.534Z,15.93
2023-05-05T04:09:28.575Z,16.02
2023-05-05T04:12:30.726Z,15.95
2023-05-05T04:15:32.563Z,15.83
2023-05-05T04:18:36.168Z,15.74
2023-05-05T04:21:38.935Z,15.67
2023-05-05T04:24:40.886Z,15.67
2023-05-05T04:27:42.583Z,16.00
2023-05-05T04:30:44.459Z,16.06
2023-05-05T04:33:46.355Z,16.32
2023-05-05T04:36:48.849Z,16.45
2023-05-05T04:39:51.163Z,16.44
2023-05-05T04:42:52.905Z,16.40
2023-05-05T04:45:55.870Z,16.52
2023-05-05T04:49:03.472Z,16.63
2023-05-05T04:52:05.650Z,16.40
2023-05-05T04:55:10.399Z,16.31
2023-05-05T04:58:12.166Z,16.50
2023-05-05T05:01:13.825Z,16.57
2023-05-05T05:04:18.684Z,16.63
2023-05-05T05:07:20.663Z,16.71
2023-05-05T05:10:22.333Z,16.88
2023-05-05T05:13:24.000Z,16.89
2023-05-05T05:16:25.862Z,16.97
2023-05-05T05:19:28.648Z,17.08
2023-05-05T05:22:31.110Z,17.19
2023-05-05T05:25:33.522Z,17.19
2023-05-05T05:28:35.305Z,17.11
2023-05-05T05:31:37.590Z,17.14
2023-05-05T05:34:39.651Z,17.10
2023-05-05T05:37:43.437Z,17.08
2023-05-05T05:40:45.352Z,17.10
2023-05-05T05:43:47.304Z,17.15
2023-05-05T05:46:49.249Z,17.15
2023-05-05T05:49:51.647Z,17.24
2023-05-05T05:52:54.724Z,17.25
2023-05-05T05:55:57.057Z,17.26
2023-05-05T05:58:59.086Z,17.23
2023-05-05T06:02:01.557Z,17.24
2023-05-05T06:05:03.430Z,17.20
2023-05-05T06:08:05.404Z,17.15
2023-05-05T06:11:10.999Z,17.12
2023-05-05T06:14:12.827Z,17.15
2023-05-05T06:17:14.612Z,17.18
2023-05-05T06:20:16.571Z,17.27
2023-05-05T06:23:18.573Z,17.28
2023-05-05T06:26:26.149Z,17.24
2023-05-05T06:29:28.730Z,17.26
2023-05-05T06:32:30.516Z,17.27
2023-05-05T06:35:32.240Z,17.20
2023-05-05T06:38:33.920Z,16.97
2023-05-05T06:41:35.599Z,16.93
2023-05-05T06:44:37.891Z,17.10
2023-05-05T06:47:40.181Z,17.17
2023-05-05T06:50:42.388Z,17.17
2023-05-05T06:53:44.104Z,17.23
2023-05-05T06:56:46.196Z,17.27
2023-05-05T06:59:47.970Z,17.31
2023-05-05T07:02:49.926Z,17.28
2023-05-05T07:05:53.890Z,17.34
2023-05-05T07:08:55.782Z,17.46
2023-05-05T07:11:57.622Z,17.52
2023-05-05T07:14:59.291Z,17.60
2023-05-05T07:18:01.052Z,17.59
2023-05-05T07:21:02.821Z,17.69
2023-05-05T07:24:04.645Z,17.75
2023-05-05T07:27:07.250Z,17.69
2023-05-05T07:30:13.135Z,17.70
2023-05-05T07:33:16.147Z,17.86
2023-05-05T07:36:18.536Z,17.68
2023-05-05T07:39:21.140Z,17.71
2023-05-05T07:42:22.806Z,17.83
2023-05-05T07:45:24.724Z,17.81
2023-05-05T07:48:26.516Z,17.72
2023-05-05T07:51:28.129Z,17.73
2023-05-05T07:54:29.870Z,17.76
2023-05-05T07:57:31.529Z,17.72
2023-05-05T08:00:33.285Z,17.71
2023-05-05T08:03:35.062Z,17.72
2023-05-05T08:06:36.868Z,17.80
2023-05-05T08:09:38.666Z,17.82
2023-05-05T08:12:40.693Z,17.84
2023-05-05T08:15:42.619Z,17.85
2023-05-05T08:18:44.475Z,17.91
2023-05-05T08:21:46.305Z,17.96
2023-05-05T08:24:47.949Z,17.78
2023-05-05T08:27:49.667Z,17.63
2023-05-05T08:30:51.375Z,17.86
2023-05-05T08:33:56.057Z,18.02
2023-05-05T08:36:57.824Z,18.13
2023-05-05T08:39:59.416Z,18.00
2023-05-05T08:43:01.610Z,18.22
2023-05-05T08:46:04.212Z,18.48
2023-05-05T08:49:08.942Z,18.57
2023-05-05T08:52:13.453Z,18.70
2023-05-05T08:55:24.328Z,18.90
2023-05-05T08:58:28.831Z,19.00
2023-05-05T09:01:32.379Z,19.17
2023-05-05T09:04:34.810Z,19.23
2023-05-05T09:07:37.676Z,19.36
2023-05-05T09:10:43.155Z,19.52
2023-05-05T09:13:44.836Z,19.61
2023-05-05T09:16:46.582Z,19.56
2023-05-05T09:20:04.840Z,19.99
2023-05-05T09:23:15.685Z,20.22
2023-05-05T09:26:17.407Z,20.82
2023-05-05T09:29:20.756Z,21.01
2023-05-05T09:32:22.690Z,21.21
2023-05-05T09:35:25.783Z,21.15
2023-05-05T09:38:27.430Z,21.36
2023-05-05T09:41:43.600Z,21.40
2023-05-05T09:44:45.264Z,21.40
2023-05-05T09:47:47.961Z,21.93
2023-05-05T09:50:50.039Z,21.96
2023-05-05T09:53:51.707Z,22.25
2023-05-05T09:56:54.503Z,22.17
2023-05-05T09:59:57.911Z,22.07
2023-05-05T10:03:03.118Z,21.81
2023-05-05T10:06:07.737Z,21.94
2023-05-05T10:09:09.436Z,22.07
2023-05-05T10:12:11.606Z,22.11
2023-05-05T10:15:15.685Z,22.23
2023-05-05T10:18:28.337Z,21.68
2023-05-05T10:21:37.211Z,21.88
2023-05-05T10:24:55.817Z,21.73
2023-05-05T10:28:00.555Z,21.27
2023-05-05T10:31:16.415Z,21.82
2023-05-05T10:34:46.437Z,22.04
2023-05-05T10:37:49.200Z,21.82
2023-05-05T10:40:51.954Z,22.03
2023-05-05T10:43:59.960Z,21.98
2023-05-05T10:47:03.401Z,22.34
2023-05-05T10:50:26.611Z,22.41
2023-05-05T10:53:42.622Z,22.59
2023-05-05T10:56:44.446Z,22.40
2023-05-05T10:59:47.451Z,22.53
2023-05-05T11:02:49.432Z,22.59
2023-05-05T11:06:09.147Z,22.54
2023-05-05T11:09:29.941Z,22.59
2023-05-05T11:12:33.195Z,22.79
2023-05-05T11:15:37.973Z,22.72
2023-05-05T11:18:44.352Z,22.60
2023-05-05T11:22:02.016Z,22.60
2023-05-05T11:25:36.186Z,22.71
2023-05-05T11:29:10.229Z,22.60
2023-05-05T11:32:14.013Z,23.05
2023-05-05T11:35:16.305Z,23.18
2023-05-05T11:38:22.134Z,23.04
2023-05-05T11:41:32.944Z,23.59
2023-05-05T11:44:35.794Z,23.19
2023-05-05T11:47:37.587Z,23.32
2023-05-05T11:50:39.677Z,23.49
2023-05-05T11:53:46.554Z,24.03
2023-05-05T11:56:53.055Z,24.54
2023-05-05T11:59:55.683Z,25.16
2023-05-05T12:02:58.111Z,25.39
2023-05-05T12:05:59.919Z,25.57
2023-05-05T12:09:01.772Z,25.95
2023-05-05T12:12:03.796Z,25.96
2023-05-05T12:15:06.763Z,25.56
2023-05-05T12:18:18.790Z,25.43
2023-05-05T12:21:21.953Z,25.53
2023-05-05T12:24:23.858Z,25.08
2023-05-05T12:27:27.019Z,24.39
2023-05-05T12:30:28.780Z,24.06
2023-05-05T12:33:31.661Z,23.56
2023-05-05T12:36:34.696Z,23.38
2023-05-05T12:39:36.785Z,23.29
2023-05-05T12:42:39.463Z,23.51
2023-05-05T12:45:41.390Z,23.20
2023-05-05T12:48:48.304Z,23.06
2023-05-05T12:51:56.983Z,22.57
2023-05-05T12:54:59.932Z,22.35
2023-05-05T12:58:04.396Z,22.27
2023-05-05T13:01:10.544Z,21.97
2023-05-05T13:04:13.758Z,21.79
2023-05-05T13:07:17.882Z,21.91
2023-05-05T13:10:19.511Z,21.73
2023-05-05T13:13:21.120Z,21.84
2023-05-05T13:16:22.938Z,21.88
2023-05-05T13:19:25.175Z,21.73
2023-05-05T13:22:27.125Z,21.58
2023-05-05T13:25:28.790Z,21.30
2023-05-05T13:28:30.568Z,21.34
2023-05-05T13:31:32.305Z,20.94
2023-05-05T13:34:34.273Z,20.83
2023-05-05T13:37:36.055Z,20.63
2023-05-05T13:40:37.812Z,20.24
2023-05-05T13:43:39.469Z,19.94
2023-05-05T13:46:42.606Z,20.26
2023-05-05T13:49:44.270Z,20.39
2023-05-05T13:52:45.976Z,19.93
2023-05-05T13:55:47.725Z,19.53
2023-05-05T13:58:49.334Z,19.58
2023-05-05T14:01:50.947Z,19.60
2023-05-05T14:04:52.598Z,19.46
2023-05-05T14:07:57.164Z,18.84
2023-05-05T14:10:58.952Z,18.37
2023-05-05T14:14:00.699Z,18.27
2023-05-05T14:17:02.440Z,18.05
2023-05-05T14:20:04.672Z,17.97
2023-05-05T14:23:06.457Z,17.73
2023-05-05T14:26:09.117Z,17.63
2023-05-05T14:29:11.172Z,17.52
2023-05-05T14:32:12.828Z,17.50
2023-05-05T14:35:14.426Z,17.56
2023-05-05T14:38:16.164Z,17.65
2023-05-05T14:41:17.808Z,17.44
2023-05-05T14:44:19.385Z,17.27
2023-05-05T14:47:21.030Z,17.23
2023-05-05T14:50:22.756Z,17.21
2023-05-05T14:53:24.448Z,17.30
2023-05-05T14:56:26.538Z,17.10
2023-05-05T14:59:28.884Z,16.91
2023-05-05T15:02:31.095Z,16.86
2023-05-05T15:05:33.006Z,16.85
2023-05-05T15:08:34.930Z,16.88
2023-05-05T15:11:36.526Z,16.91
2023-05-05T15:14:38.254Z,16.84
2023-05-05T15:17:41.735Z,16.83
2023-05-05T15:20:43.561Z,17.04
2023-05-05T15:23:45.213Z,17.12
2023-05-05T15:26:46.943Z,17.16
2023-05-05T15:29:48.860Z,17.13
2023-05-05T15:32:50.579Z,16.94
2023-05-05T15:35:52.253Z,16.83
2023-05-05T15:38:54.096Z,16.82
2023-05-05T15:41:55.800Z,16.78
2023-05-05T15:44:59.171Z,16.81
2023-05-05T15:48:01.033Z,16.95
2023-05-05T15:51:02.781Z,16.90
2023-05-05T15:54:04.615Z,16.84
2023-05-05T15:57:06.323Z,16.60
2023-05-05T16:00:09.341Z,16.46
2023-05-05T16:03:12.385Z,16.49
2023-05-05T16:06:14.219Z,16.64
2023-05-05T16:09:16.239Z,16.73
2023-05-05T16:12:18.472Z,16.60
2023-05-05T16:15:20.453Z,16.57
2023-05-05T16:18:22.040Z,16.60
2023-05-05T16:21:23.680Z,16.64
2023-05-05T16:24:25.433Z,16.54
2023-05-05T16:27:27.126Z,16.46
2023-05-05T16:30:29.289Z,16.47
2023-05-05T16:33:31.315Z,16.44
2023-05-05T16:36:32.991Z,16.50
2023-05-05T16:39:40.009Z,16.51
2023-05-05T16:42:44.229Z,16.46
2023-05-05T16:45:46.681Z,16.46
2023-05-05T16:48:48.519Z,16.60
2023-05-05T16:51:52.553Z,17.06
2023-05-05T16:54:55.820Z,17.44
2023-05-05T16:57:57.474Z,17.48
2023-05-05T17:01:01.862Z,17.48
2023-05-05T17:04:03.592Z,17.54
2023-05-05T17:07:05.270Z,17.49
2023-05-05T17:10:07.645Z,17.36
2023-05-05T17:13:10.633Z,17.17
2023-05-05T17:16:12.290Z,17.31
2023-05-05T17:19:14.198Z,17.11
2023-05-05T17:22:16.240Z,17.21
2023-05-05T17:25:17.911Z,17.20
2023-05-05T17:28:19.708Z,17.23
2023-05-05T17:31:21.919Z,17.02
2023-05-05T17:34:23.578Z,16.99
2023-05-05T17:37:25.234Z,16.92
2023-05-05T17:40:26.942Z,16.97
2023-05-05T17:43:28.686Z,16.86
2023-05-05T17:46:30.471Z,16.77
2023-05-05T17:49:32.167Z,16.64
2023-05-05T17:52:33.821Z,16.55
2023-05-05T17:55:35.566Z,16.59
2023-05-05T17:58:37.620Z,16.69
2023-05-05T18:01:39.577Z,16.62
2023-05-05T18:04:41.343Z,16.52
2023-05-05T18:07:42.927Z,16.62
2023-05-05T18:10:44.578Z,16.61
2023-05-05T18:13:46.279Z,16.48
2023-05-05T18:16:49.931Z,16.49
2023-05-05T18:19:51.644Z,16.40
2023-05-05T18:22:53.238Z,16.26
2023-05-05T18:25:55.055Z,16.30
2023-05-05T18:28:56.988Z,16.32
2023-05-05T18:31:59.503Z,16.29
2023-05-05T18:35:01.265Z,16.28
2023-05-05T18:38:04.036Z,16.19
2023-05-05T18:41:05.693Z,16.15
2023-05-05T18:44:07.325Z,16.07
2023-05-05T18:47:09.129Z,16.11
2023-05-05T18:50:11.291Z,15.98
2023-05-05T18:53:14.749Z,15.84
2023-05-05T18:56:16.592Z,15.85
2023-05-05T18:59:18.148Z,15.80
2023-05-05T19:02:19.764Z,15.76
2023-05-05T19:05:21.601Z,15.62
2023-05-05T19:08:23.407Z,15.63
2023-05-05T19:11:25.255Z,15.75
2023-05-05T19:14:26.871Z,15.74
2023-05-05T19:17:28.537Z,15.59
2023-05-05T19:20:31.825Z,15.45
2023-05-05T19:23:33.651Z,15.33
2023-05-05T19:26:35.747Z,15.38
2023-05-05T19:29:37.394Z,15.38
2023-05-05T19:32:39.019Z,15.26
2023-05-05T19:35:40.643Z,15.27
2023-05-05T19:38:44.511Z,15.32
2023-05-05T19:41:46.565Z,15.34
2023-05-05T19:44:48.139Z,15.40
2023-05-05T19:47:49.782Z,15.35
2023-05-05T19:50:52.021Z,15.24
2023-05-05T19:53:53.582Z,15.31
2023-05-05T19:56:57.273Z,15.37
2023-05-05T20:00:02.532Z,15.28
2023-05-05T20:03:06.739Z,15.12
2023-05-05T20:06:08.435Z,15.00
2023-05-05T20:09:10.138Z,15.03
2023-05-05T20:12:12.312Z,15.02
2023-05-05T20:15:18.587Z,14.97
2023-05-05T20:18:20.256Z,14.85
2023-05-05T20:21:22.079Z,14.85
2023-05-05T20:24:23.729Z,14.80
2023-05-05T20:27:26.635Z,14.74
2023-05-05T20:30:29.723Z,14.64
2023-05-05T20:33:31.558Z,14.70
2023-05-05T20:36:33.264Z,14.73
2023-05-05T20:39:34.928Z,14.60
2023-05-05T20:42:37.066Z,14.57
2023-05-05T20:45:38.804Z,14.64
2023-05-05T20:48:42.785Z,14.62
2023-05-05T20:51:44.838Z,14.68
2023-05-05T20:54:46.428Z,14.61
2023-05-05T20:57:48.066Z,14.64
2023-05-05T21:00:50.456Z,14.53
2023-05-05T21:03:52.675Z,14.59
2023-05-05T21:06:54.351Z,14.59
2023-05-05T21:09:56.020Z,14.49
2023-05-05T21:12:57.715Z,14.37
2023-05-05T21:15:59.346Z,14.39
2023-05-05T21:19:00.976Z,14.44
2023-05-05T21:22:02.606Z,14.43
2023-05-05T21:25:16.018Z,14.43
2023-05-05T21:28:17.707Z,14.32
2023-05-05T21:31:22.138Z,14.26
2023-05-05T21:34:24.121Z,14.17
2023-05-05T21:37:26.057Z,14.08
2023-05-05T21:40:27.685Z,14.10
2023-05-05T21:43:29.512Z,14.06
2023-05-05T21:46:31.514Z,14.10
2023-05-05T21:49:33.317Z,14.09
2023-05-05T21:52:35.020Z,14.08
2023-05-05T21:55:36.580Z,14.10
2023-05-05T21:58:38.362Z,13.98
2023-05-05T22:01:41.161Z,13.92
2023-05-05T22:04:42.918Z,13.91
2023-05-05T22:07:44.919Z,13.90
2023-05-05T22:10:46.812Z,13.89
2023-05-05T22:13:48.381Z,13.89
2023-05-05T22:16:49.986Z,13.92
2023-05-05T22:19:51.614Z,13.95
2023-05-05T22:22:53.296Z,13.90
2023-05-05T22:25:55.324Z,13.87
2023-05-05T22:28:57.193Z,13.85
2023-05-05T22:31:58.769Z,13.76
2023-05-05T22:35:01.300Z,13.85
2023-05-05T22:38:03.197Z,13.83
2023-05-05T22:41:06.537Z,13.76
2023-05-05T22:44:08.178Z,13.75
2023-05-05T22:47:10.041Z,13.73
2023-05-05T22:50:11.743Z,13.64
2023-05-05T22:53:13.613Z,13.59
2023-05-05T22:56:15.461Z,13.60
2023-05-05T22:59:17.114Z,13.65
2023-05-05T23:02:18.781Z,13.63
2023-05-05T23:05:20.658Z,13.59
2023-05-05T23:08:24.029Z,13.56
2023-05-05T23:11:26.361Z,13.51
2023-05-05T23:14:28.153Z,13.52
2023-05-05T23:17:29.974Z,13.47
2023-05-05T23:20:31.728Z,13.42
2023-05-05T23:23:33.369Z,13.44
2023-05-05T23:26:35.071Z,13.44
2023-05-05T23:29:36.688Z,13.46
2023-05-05T23:32:38.267Z,13.43
2023-05-05T23:35:43.274Z,13.51
2023-05-05T23:38:45.622Z,13.51
2023-05-05T23:41:47.368Z,13.43
2023-05-05T23:44:49.054Z,13.46
2023-05-05T23:47:50.931Z,13.41
2023-05-05T23:50:52.711Z,13.38
2023-05-05T23:53:56.812Z,13.38
2023-05-05T23:57:00.304Z,13.38
